createdAt,value
2022-10-11T00:01:14.607Z,9.82
2022-10-11T00:06:17.159Z,9.55
2022-10-11T00:11:19.570Z,11.27
2022-10-11T00:16:21.827Z,7.97
2022-10-11T00:21:24.302Z,8.43
2022-10-11T00:26:26.829Z,11.52
2022-10-11T00:31:34.701Z,7.90
2022-10-11T00:36:37.946Z,9.75
2022-10-11T00:41:40.475Z,7.93
2022-10-11T00:46:45.634Z,8.68
2022-10-11T00:51:53.066Z,9.05
2022-10-11T00:56:59.308Z,8.27
2022-10-11T01:02:01.862Z,7.88
2022-10-11T01:07:04.637Z,8.20
2022-10-11T01:12:15.053Z,8.00
2022-10-11T01:17:42.159Z,8.10
2022-10-11T01:22:56.265Z,11.82
2022-10-11T01:28:14.767Z,7.05
2022-10-11T01:33:35.700Z,9.15
2022-10-11T01:38:42.323Z,10.38
2022-10-11T01:43:45.959Z,7.70
2022-10-11T01:48:53.915Z,8.23
2022-10-11T01:54:05.308Z,8.32
2022-10-11T01:59:40.454Z,7.97
2022-10-11T02:04:48.204Z,7.32
2022-10-11T02:10:05.809Z,10.13
2022-10-11T02:15:09.924Z,9.90
2022-10-11T02:20:14.712Z,10.15
2022-10-11T02:25:22.019Z,10.60
2022-10-11T02:30:25.399Z,10.00
2022-10-11T02:35:30.616Z,10.00
2022-10-11T02:40:35.998Z,11.30
2022-10-11T02:45:41.974Z,12.05
2022-10-11T02:50:44.809Z,13.60
2022-10-11T02:55:51.938Z,8.82
2022-10-11T03:00:54.089Z,12.35
2022-10-11T03:06:01.295Z,12.97
2022-10-11T03:11:06.884Z,12.32
2022-10-11T03:16:09.533Z,11.68
2022-10-11T03:21:11.952Z,12.67
2022-10-11T03:26:14.277Z,13.00
2022-10-11T03:31:16.642Z,8.60
2022-10-11T03:36:18.935Z,7.80
2022-10-11T03:41:21.142Z,8.57
2022-10-11T03:46:23.628Z,6.53
2022-10-11T03:51:26.302Z,7.00
2022-10-11T03:56:28.579Z,10.00
2022-10-11T04:01:33.182Z,11.93
2022-10-11T04:06:35.385Z,11.02
2022-10-11T04:11:37.589Z,10.60
2022-10-11T04:16:40.307Z,9.10
2022-10-11T04:21:42.796Z,10.43
2022-10-11T04:26:45.041Z,8.88
2022-10-11T04:31:47.338Z,11.55
2022-10-11T04:36:51.608Z,10.57
2022-10-11T04:41:55.299Z,10.40
2022-10-11T04:51:59.866Z,7.95
2022-10-11T04:57:02.134Z,11.02
2022-10-11T05:02:05.535Z,10.32
2022-10-11T05:07:07.789Z,9.40
2022-10-11T05:12:10.101Z,7.22
2022-10-11T05:17:12.500Z,6.50
2022-10-11T05:22:14.785Z,6.72
2022-10-11T05:27:17.078Z,10.10
2022-10-11T05:32:19.255Z,11.05
2022-10-11T05:37:21.705Z,5.40
2022-10-11T05:42:24.482Z,9.40
2022-10-11T05:47:27.153Z,15.00
2022-10-11T05:52:29.392Z,7.57
2022-10-11T05:57:31.715Z,10.07
2022-10-11T06:02:34.354Z,9.77
2022-10-11T06:07:37.972Z,10.18
2022-10-11T06:17:42.530Z,10.88
2022-10-11T06:22:44.704Z,9.85
2022-10-11T06:27:46.993Z,13.27
2022-10-11T06:32:49.483Z,12.65
2022-10-11T06:37:52.128Z,11.17
2022-10-11T06:42:54.348Z,11.33
2022-10-11T06:47:56.651Z,10.90
2022-10-11T06:52:59.601Z,13.65
2022-10-11T06:58:01.923Z,15.05
2022-10-11T07:03:05.022Z,7.93
2022-10-11T07:08:07.187Z,9.77
2022-10-11T07:13:12.533Z,5.80
2022-10-11T07:18:18.587Z,9.70
2022-10-11T07:23:21.111Z,9.40
2022-10-11T07:33:27.381Z,7.47
2022-10-11T07:38:29.619Z,12.40
2022-10-11T07:43:32.843Z,8.63
2022-10-11T07:48:36.227Z,10.73
2022-10-11T07:53:41.629Z,8.18
2022-10-11T07:58:43.928Z,8.60
2022-10-11T08:03:47.287Z,10.27
2022-10-11T08:08:49.796Z,10.10
2022-10-11T08:13:52.707Z,13.80
2022-10-11T08:18:56.950Z,13.88
2022-10-11T08:23:59.691Z,8.65
2022-10-11T08:29:03.490Z,8.13
2022-10-11T08:34:06.355Z,7.72
2022-10-11T08:39:08.656Z,9.57
2022-10-11T08:44:20.094Z,7.32
2022-10-11T08:49:25.307Z,8.75
2022-10-11T08:54:45.649Z,11.23
2022-10-11T08:59:59.684Z,7.72
2022-10-11T09:05:03.337Z,9.63
2022-10-11T09:10:26.789Z,10.73
2022-10-11T09:15:47.835Z,9.27
2022-10-11T09:21:04.786Z,8.65
2022-10-11T09:26:35.569Z,8.73
2022-10-11T09:31:37.960Z,12.60
2022-10-11T09:37:17.980Z,8.95
2022-10-11T09:42:20.250Z,9.15
2022-10-11T09:52:28.968Z,8.48
2022-10-11T09:57:36.573Z,9.43
2022-10-11T10:02:47.571Z,10.02
2022-10-11T10:08:11.494Z,7.57
2022-10-11T10:13:21.987Z,5.35
2022-10-11T10:18:33.055Z,7.80
2022-10-11T10:23:36.919Z,3.72
2022-10-11T10:28:39.898Z,13.30
2022-10-11T10:33:42.721Z,7.20
2022-10-11T10:43:57.464Z,5.82
2022-10-11T10:49:48.861Z,4.28
2022-10-11T11:00:14.525Z,4.63
2022-10-11T11:05:48.518Z,6.43
2022-10-11T11:11:03.590Z,5.72
2022-10-11T11:16:32.700Z,4.53
2022-10-11T11:22:04.593Z,5.32
2022-10-11T11:27:16.175Z,9.60
2022-10-11T11:32:33.049Z,7.63
2022-10-11T11:37:41.237Z,12.13
2022-10-11T11:42:52.040Z,15.57
2022-10-11T11:48:02.425Z,19.30
2022-10-11T11:53:08.141Z,12.90
2022-10-11T11:58:25.419Z,13.20
2022-10-11T12:03:32.518Z,8.38
2022-10-11T12:08:39.055Z,8.25
2022-10-11T12:13:42.593Z,3.83
2022-10-11T12:18:57.284Z,5.82
2022-10-11T12:24:01.598Z,7.78
2022-10-11T12:29:17.109Z,5.40
2022-10-11T12:34:55.593Z,4.83
2022-10-11T12:39:59.249Z,5.47
2022-10-11T12:45:12.287Z,10.57
2022-10-11T12:50:38.623Z,10.75
2022-10-11T12:56:11.569Z,15.68
2022-10-11T13:01:23.365Z,21.73
2022-10-11T13:06:33.426Z,25.30
2022-10-11T13:11:43.693Z,12.38
2022-10-11T13:17:09.720Z,23.17
2022-10-11T13:22:19.073Z,25.13
2022-10-11T13:27:24.281Z,9.38
2022-10-11T13:32:29.899Z,8.50
2022-10-11T13:37:40.198Z,6.60
2022-10-11T13:42:42.904Z,6.18
2022-10-11T13:47:47.293Z,6.93
2022-10-11T13:58:18.710Z,7.78
2022-10-11T14:03:21.817Z,6.65
2022-10-11T14:08:34.956Z,5.25
2022-10-11T14:13:43.291Z,19.58
2022-10-11T14:19:12.110Z,22.25
2022-10-11T14:24:15.040Z,21.40
2022-10-11T14:29:32.186Z,24.60
2022-10-11T14:34:35.665Z,13.05
2022-10-11T14:39:37.932Z,17.07
2022-10-11T14:44:41.738Z,51.53
2022-10-11T14:54:49.274Z,27.65
2022-10-11T14:59:51.906Z,64.45
2022-10-11T15:04:54.098Z,69.20
2022-10-11T15:09:56.253Z,88.85
2022-10-11T15:14:58.536Z,85.78
2022-10-11T15:20:00.830Z,66.28
2022-10-11T15:25:05.377Z,39.63
2022-10-11T15:30:13.577Z,94.78
2022-10-11T15:35:20.697Z,83.07
2022-10-11T15:40:26.712Z,77.65
2022-10-11T15:45:29.474Z,47.92
2022-10-11T15:50:34.641Z,27.25
2022-10-11T15:55:44.001Z,17.70
2022-10-11T16:00:48.472Z,13.55
2022-10-11T16:05:52.120Z,13.75
2022-10-11T16:10:55.392Z,24.20
2022-10-11T16:15:57.710Z,102.50
2022-10-11T16:21:00.429Z,133.95
2022-10-11T16:26:06.390Z,145.48
2022-10-11T16:31:16.868Z,158.40
2022-10-11T16:36:40.419Z,171.98
2022-10-11T16:41:43.111Z,197.27
2022-10-11T16:46:49.911Z,161.55
2022-10-11T16:51:59.306Z,150.52
2022-10-11T16:57:02.444Z,152.80
2022-10-11T17:02:05.481Z,142.07
2022-10-11T17:07:13.124Z,140.13
2022-10-11T17:12:18.577Z,120.82
2022-10-11T17:17:21.271Z,137.27
2022-10-11T17:22:23.661Z,200.07
2022-10-11T17:27:26.256Z,186.45
2022-10-11T17:32:28.417Z,186.50
2022-10-11T17:37:30.701Z,169.65
2022-10-11T17:42:33.755Z,160.05
2022-10-11T17:47:35.954Z,161.15
2022-10-11T17:52:38.472Z,162.00
2022-10-11T17:57:41.384Z,166.30
2022-10-11T18:02:44.985Z,162.95
2022-10-11T18:12:54.095Z,199.38
2022-10-11T18:18:00.063Z,211.80
2022-10-11T18:23:02.641Z,197.98
2022-10-11T18:28:05.025Z,171.23
2022-10-11T18:33:07.222Z,142.82
2022-10-11T18:38:09.465Z,124.53
2022-10-11T18:43:11.680Z,109.32
2022-10-11T18:48:14.346Z,100.20
2022-10-11T18:53:17.093Z,81.80
2022-10-11T18:58:19.673Z,81.80
2022-10-11T19:03:22.347Z,75.32
2022-10-11T19:08:24.875Z,82.43
2022-10-11T19:13:27.307Z,83.55
2022-10-11T19:18:29.781Z,122.75
2022-10-11T19:23:42.037Z,129.85
2022-10-11T19:28:45.584Z,109.60
2022-10-11T19:38:56.815Z,119.28
2022-10-11T19:43:59.468Z,125.75
2022-10-11T19:49:04.693Z,149.38
2022-10-11T19:54:12.496Z,160.05
2022-10-11T19:59:15.511Z,190.77
2022-10-11T20:04:39.534Z,191.70
2022-10-11T20:09:40.447Z,184.90
2022-10-11T20:14:42.978Z,175.93
2022-10-11T20:19:45.227Z,163.55
2022-10-11T20:24:47.527Z,170.93
2022-10-11T20:29:50.179Z,185.10
2022-10-11T20:34:54.777Z,150.35
2022-10-11T20:40:00.619Z,126.63
2022-10-11T20:45:03.068Z,130.52
2022-10-11T20:50:06.082Z,122.50
2022-10-11T20:55:08.975Z,176.40
2022-10-11T21:00:12.222Z,132.77
2022-10-11T21:05:14.542Z,132.65
2022-10-11T21:10:19.444Z,108.88
2022-10-11T21:15:22.490Z,107.50
2022-10-11T21:20:25.400Z,119.20
2022-10-11T21:25:27.566Z,126.33
2022-10-11T21:30:33.780Z,122.82
2022-10-11T21:35:39.219Z,135.68
2022-10-11T21:40:41.491Z,165.97
2022-10-11T21:45:43.677Z,171.50
2022-10-11T21:50:58.050Z,160.52
2022-10-11T21:56:00.744Z,155.45
2022-10-11T22:01:03.497Z,156.13
2022-10-11T22:06:06.190Z,177.00
2022-10-11T22:11:09.399Z,170.25
2022-10-11T22:21:20.494Z,141.65
2022-10-11T22:26:26.132Z,131.95
2022-10-11T22:31:28.904Z,132.10
2022-10-11T22:36:31.138Z,135.17
2022-10-11T22:41:35.548Z,147.32
2022-10-11T22:46:39.134Z,112.60
2022-10-11T22:51:41.912Z,63.20
2022-10-11T22:56:44.343Z,62.58
2022-10-11T23:01:47.718Z,55.72
2022-10-11T23:06:51.153Z,51.60
2022-10-11T23:11:56.561Z,54.78
2022-10-11T23:17:11.921Z,57.30
2022-10-11T23:22:17.424Z,61.70
2022-10-11T23:32:46.266Z,58.85
2022-10-11T23:37:48.612Z,55.13
2022-10-11T23:42:50.845Z,48.60
2022-10-11T23:48:04.598Z,45.80
2022-10-11T23:53:33.908Z,45.55
2022-10-11T23:58:39.313Z,43.10
